Keene, Texas
Current Conditions -  °F | °C
As of 3:35 AM on Thursday 27 Nov 2014 (Local Time) from KCPT Reporting Station
Clear Clear  
Wind Chill: 34°   Ceiling: Unl
Heat Index: 41°   Visibility: 10mi
Dew Point: 30°   Wind: 12mph
Humidity: 65%   Direction: 10°N
Pressure: 30.46"   Gusts: NA
Location:  32.4°N, 97.32°W
Report Text: KCPT 270935Z AUTO 01010KT 10SM CLR 05/M01 A3046 RMK AO2
Loading
Personal Weather Stations






























Interactive Weather Map New forecast layout! Learn more

10-Day Weather Forecast

Advertisements
Track Severe Weather on mobile